Time;durP1;ratioP1;P1;durP2;ratioP2;P2;SDS_P1;SDS_P2;PMS_P1;PMS_P2;Temp;Humidity;BMP_temperature;BMP_pressure;BME280_temperature;BME280_humidity;BME280_pressure;Samples;Min_cycle;Max_cycle;Signal;HPM_P1;HPM_P2
2022/05/27 00:00:54;;;;;;;11.45;6.45;;;;;;;22.41;61.04;100012.50;3118974;28;20872;-77
2022/05/27 00:02:26;;;;;;;16.17;7.65;;;;;;;22.39;61.20;100005.66;3117907;28;20391;-77
2022/05/27 00:04:01;;;;;;;18.48;7.78;;;;;;;22.40;61.11;100000.22;3119142;28;20069;-77
2022/05/27 00:05:37;;;;;;;17.35;8.05;;;;;;;22.39;60.85;100003.88;3108052;28;20049;-77
2022/05/27 00:07:10;;;;;;;12.57;6.78;;;;;;;22.06;60.87;99941.41;3115544;28;20057;-77
2022/05/27 00:08:43;;;;;;;13.73;6.22;;;;;;;22.20;60.69;99964.91;3117653;28;20115;-75
2022/05/27 00:10:15;;;;;;;18.42;7.65;;;;;;;22.43;60.34;99994.63;3117356;28;20064;-75
2022/05/27 00:11:47;;;;;;;15.05;6.93;;;;;;;22.32;60.32;99972.72;3121253;28;20072;-75
2022/05/27 00:13:19;;;;;;;12.75;7.15;;;;;;;22.43;60.17;99989.31;3117458;28;20445;-74
2022/05/27 00:14:51;;;;;;;12.02;6.75;;;;;;;22.46;60.51;99989.03;3117492;28;20475;-74
2022/05/27 00:16:23;;;;;;;13.10;6.63;;;;;;;22.42;59.92;99976.19;3117590;28;20198;-75
2022/05/27 00:17:55;;;;;;;17.77;7.03;;;;;;;22.46;59.88;99994.34;3117584;28;20134;-75
2022/05/27 00:19:27;;;;;;;13.77;8.25;;;;;;;22.14;59.92;99938.91;3117403;28;20059;-78
2022/05/27 00:21:00;;;;;;;16.00;7.82;;;;;;;22.36;60.21;99977.63;3117630;28;20057;-78
2022/05/27 00:22:34;;;;;;;12.30;7.78;;;;;;;22.43;59.87;99989.31;3117444;28;20255;-78
2022/05/27 00:24:06;;;;;;;;;;;;;;;22.42;59.97;99989.44;3117868;28;20111;-78
2022/05/27 00:25:38;;;;;;;10.80;6.57;;;;;;;22.12;59.81;99943.50;3117408;28;19929;-78
2022/05/27 00:27:10;;;;;;;12.05;7.47;;;;;;;22.24;59.80;99960.13;3117413;28;20307;-78
2022/05/27 00:28:42;;;;;;;16.58;7.53;;;;;;;22.04;59.92;99924.81;3117671;28;20099;-78
2022/05/27 00:30:15;;;;;;;15.00;7.55;;;;;;;22.21;59.93;99950.69;3117135;28;20536;-78
2022/05/27 00:31:47;;;;;;;14.20;7.87;;;;;;;22.20;59.78;99954.28;3110824;28;20053;-78
2022/05/27 00:33:19;;;;;;;14.88;6.78;;;;;;;22.43;59.77;99993.81;3117392;28;20053;-77
2022/05/27 00:34:51;;;;;;;15.23;7.15;;;;;;;22.17;59.52;99945.78;3117255;28;20045;-77
2022/05/27 00:36:23;;;;;;;14.75;7.22;;;;;;;22.42;59.52;99986.81;3115253;28;20095;-77
2022/05/27 00:37:57;;;;;;;16.55;7.40;;;;;;;22.40;59.87;99989.59;3117084;28;20088;-77
2022/05/27 00:39:29;;;;;;;13.70;7.75;;;;;;;22.29;59.55;99973.00;3117638;28;20084;-78
2022/05/27 00:41:01;;;;;;;14.82;7.38;;;;;;;22.11;59.58;99939.19;3117585;28;20053;-78
2022/05/27 00:42:33;;;;;;;12.88;6.95;;;;;;;22.37;59.46;99981.94;3117181;28;20108;-78
2022/05/27 00:44:05;;;;;;;15.23;6.88;;;;;;;22.34;59.67;99978.72;3110927;28;20077;-76
2022/05/27 00:45:39;;;;;;;14.40;8.30;;;;;;;22.32;59.60;99981.50;3117225;28;20089;-75
2022/05/27 00:47:15;;;;;;;14.80;7.30;;;;;;;22.09;59.57;99949.09;3117322;28;20053;-77
2022/05/27 00:48:50;;;;;;;15.68;7.70;;;;;;;21.79;59.74;99907.63;3117080;28;20103;-78
2022/05/27 00:50:25;;;;;;;16.58;8.52;;;;;;;22.24;60.16;99976.06;3116504;28;20077;-78
2022/05/27 00:52:05;;;;;;;20.60;7.18;;;;;;;22.21;60.25;99973.69;3116895;28;20554;-77
2022/05/27 00:53:44;;;;;;;14.15;7.95;;;;;;;22.18;59.95;99980.13;3116590;28;20053;-77
2022/05/27 00:55:21;;;;;;;15.38;7.20;;;;;;;22.15;60.37;99975.03;3117196;28;20104;-77
2022/05/27 00:56:57;;;;;;;19.10;7.38;;;;;;;22.14;60.28;99977.84;3119871;28;20061;-77
2022/05/27 00:58:33;;;;;;;13.20;7.43;;;;;;;21.86;60.14;99937.94;3117028;28;20041;-77
2022/05/27 01:00:08;;;;;;;14.48;7.22;;;;;;;22.11;59.96;99978.97;3117102;28;20115;-74
2022/05/27 01:01:41;;;;;;;12.93;6.63;;;;;;;22.01;60.03;99962.22;3113227;28;20049;-75
2022/05/27 01:03:16;;;;;;;15.13;7.88;;;;;;;22.10;60.04;99973.81;3116976;28;20152;-75
2022/05/27 01:04:49;;;;;;;15.32;7.50;;;;;;;21.99;60.28;99964.16;3116965;28;20057;-75
2022/05/27 01:06:21;;;;;;;12.90;6.80;;;;;;;22.08;60.11;99975.75;3117183;28;20092;-73
2022/05/27 01:07:56;;;;;;;11.82;7.45;;;;;;;22.08;59.77;99971.28;3116968;28;20081;-73
2022/05/27 01:09:31;;;;;;;15.05;7.20;;;;;;;22.10;59.83;99985.25;3116365;28;20065;-75
2022/05/27 01:11:14;;;;;;;13.30;6.50;;;;;;;21.93;59.50;99947.00;3117082;28;20050;-74
2022/05/27 01:13:12;;;;;;;15.33;6.60;;;;;;;22.10;59.39;99981.78;3117264;28;20115;-74
2022/05/27 01:15:01;;;;;;;15.05;5.97;;;;;;;21.76;59.41;99927.28;3116657;28;20788;-75
2022/05/27 01:16:42;;;;;;;12.95;6.15;;;;;;;22.10;59.40;99982.59;3116858;28;20045;-73
2022/05/27 01:20:18;;;;;;;18.45;7.30;;;;;;;22.09;59.57;99978.25;3116745;28;20527;-74
2022/05/27 01:20:34;;;;;;;16.52;7.55;;;;;;;22.08;59.43;99983.72;3111367;28;20510;-74
2022/05/27 01:22:29;;;;;;;13.32;6.30;;;;;;;22.06;59.62;99983.00;3117214;28;20053;-73
2022/05/27 01:24:36;;;;;;;14.60;6.30;;;;;;;22.04;59.43;99978.69;3116601;28;20596;-75
2022/05/27 01:26:34;;;;;;;23.17;6.72;;;;;;;22.00;59.27;99973.78;3116653;28;20053;-76
2022/05/27 01:28:30;;;;;;;16.05;6.40;;;;;;;22.01;59.49;99978.13;3116885;28;20103;-76
2022/05/27 01:30:19;;;;;;;13.10;6.88;;;;;;;22.02;59.03;99982.44;3110010;28;20057;-76
2022/05/27 01:31:58;;;;;;;13.48;6.65;;;;;;;22.02;59.21;99975.34;3116845;28;20064;-76
2022/05/27 01:33:38;;;;;;;12.35;6.05;;;;;;;21.81;59.12;99948.94;3116589;28;20545;-78
2022/05/27 01:35:29;;;;;;;14.32;6.70;;;;;;;21.84;59.04;99949.66;3115129;28;20169;-77
2022/05/27 01:37:07;;;;;;;17.98;6.88;;;;;;;22.02;58.89;99980.63;3116794;28;20085;-77
2022/05/27 01:38:44;;;;;;;12.23;6.78;;;;;;;22.04;58.80;99980.50;3116432;28;20790;-77
2022/05/27 01:40:31;;;;;;;12.32;7.07;;;;;;;22.01;58.88;99978.97;3116864;28;20050;-77
2022/05/27 01:42:11;;;;;;;12.50;7.22;;;;;;;21.87;58.90;99959.97;3116409;28;20823;-77
2022/05/27 01:43:51;;;;;;;14.95;7.50;;;;;;;22.03;58.94;99982.28;3116666;28;20144;-77
2022/05/27 01:45:29;;;;;;;14.25;6.05;;;;;;;22.04;58.83;99984.00;3116341;28;20049;-77
2022/05/27 01:47:05;;;;;;;14.07;6.60;;;;;;;21.99;58.96;99978.25;3116824;28;20053;-76
2022/05/27 01:48:45;;;;;;;14.60;6.05;;;;;;;21.87;58.55;99955.50;3116595;28;20057;-77
2022/05/27 01:50:25;;;;;;;14.07;7.18;;;;;;;22.04;58.73;99988.47;3116540;28;20057;-76
2022/05/27 01:52:03;;;;;;;12.40;6.13;;;;;;;21.68;58.35;99923.66;3116279;28;20490;-77
2022/05/27 01:53:46;;;;;;;18.25;7.18;;;;;;;22.01;58.47;99976.31;3122159;28;20045;-74
2022/05/27 01:55:24;;;;;;;14.87;6.10;;;;;;;22.01;58.75;99980.78;3116613;28;20057;-75
2022/05/27 01:57:01;;;;;;;14.23;6.05;;;;;;;22.00;58.48;99982.56;3116914;28;20068;-75
2022/05/27 01:58:37;;;;;;;19.92;6.80;;;;;;;22.03;58.37;99987.59;3116254;28;20057;-75
2022/05/27 02:00:13;;;;;;;18.08;7.03;;;;;;;22.02;58.73;99985.94;3115841;28;20049;-74
2022/05/27 02:01:51;;;;;;;13.27;6.25;;;;;;;22.01;58.54;99992.22;3116401;28;20111;-74
2022/05/27 02:03:49;;;;;;;13.15;6.53;;;;;;;22.00;58.43;99990.53;3116391;28;20072;-74
2022/05/27 02:05:27;;;;;;;13.23;7.00;;;;;;;21.99;58.47;99988.03;3105936;28;20507;-74
2022/05/27 02:07:03;;;;;;;18.85;6.70;;;;;;;21.99;58.59;99988.88;3105936;28;20053;-75
2022/05/27 02:08:40;;;;;;;16.65;7.60;;;;;;;21.89;58.51;99973.91;3112165;28;20458;-74
2022/05/27 02:10:19;;;;;;;11.65;7.40;;;;;;;22.01;58.66;99986.09;3112172;28;20096;-75
2022/05/27 02:11:58;;;;;;;21.35;6.82;;;;;;;21.73;58.27;99948.78;3112033;28;20049;-74
2022/05/27 02:13:35;;;;;;;16.30;7.00;;;;;;;21.99;58.56;99991.50;3111983;28;20571;-72
2022/05/27 02:15:12;;;;;;;13.48;6.35;;;;;;;21.95;58.45;99982.19;3111230;28;20143;-73
2022/05/27 02:16:50;;;;;;;18.45;7.25;;;;;;;21.97;58.59;99988.16;3111001;28;20104;-74
2022/05/27 02:18:28;;;;;;;14.35;6.55;;;;;;;21.77;58.42;99959.97;3111185;28;20068;-74
2022/05/27 02:20:06;;;;;;;13.23;7.20;;;;;;;21.98;58.32;99989.84;3110628;28;20059;-73
2022/05/27 02:21:44;;;;;;;15.90;6.68;;;;;;;21.97;58.40;99992.63;3114483;28;20045;-73
2022/05/27 02:23:23;;;;;;;20.85;6.95;;;;;;;21.95;58.63;99986.66;3116016;28;20049;-74
2022/05/27 02:25:00;;;;;;;13.13;7.40;;;;;;;21.92;58.53;99985.09;3116250;28;20072;-73
2022/05/27 02:26:38;;;;;;;12.93;6.57;;;;;;;22.00;58.38;99992.34;3115972;28;20065;-73
2022/05/27 02:28:14;;;;;;;15.05;7.28;;;;;;;22.01;58.55;100008.13;3115832;28;20053;-73
2022/05/27 02:29:51;;;;;;;13.93;7.00;;;;;;;22.02;58.37;100007.16;3116039;28;20061;-73
2022/05/27 02:31:27;;;;;;;13.75;7.38;;;;;;;21.95;58.49;99986.66;3116049;28;20548;-73
2022/05/27 02:35:08;;;;;;;14.23;7.28;;;;;;;21.72;58.60;99952.41;3115895;28;20045;-74
2022/05/27 02:36:44;;;;;;;15.52;6.80;;;;;;;21.98;58.75;100005.75;3111163;28;20123;-74
2022/05/27 02:38:17;;;;;;;16.80;7.57;;;;;;;21.90;58.74;100000.31;3115556;28;20064;-74
2022/05/27 02:39:49;;;;;;;12.95;6.75;;;;;;;21.87;58.60;100000.56;3109707;28;20115;-73
2022/05/27 02:41:30;;;;;;;15.02;6.85;;;;;;;21.89;58.77;100000.41;3115657;28;20046;-73
2022/05/27 02:43:13;;;;;;;11.70;7.03;;;;;;;21.74;58.84;99987.59;3115934;28;20107;-74
2022/05/27 02:44:52;;;;;;;15.57;6.97;;;;;;;21.85;58.99;100007.81;3115701;28;20061;-73
2022/05/27 02:46:31;;;;;;;15.35;6.80;;;;;;;21.82;59.21;100005.44;3115843;28;20160;-74
2022/05/27 02:48:16;;;;;;;19.95;6.82;;;;;;;21.79;59.14;99995.13;3115841;28;20148;-75
2022/05/27 02:49:54;;;;;;;13.70;6.88;;;;;;;21.64;59.08;99973.47;3115461;28;20053;-74
2022/05/27 02:51:36;;;;;;;12.75;6.70;;;;;;;21.76;59.00;100006.81;3115401;28;20049;-74
2022/05/27 02:53:21;;;;;;;15.05;7.18;;;;;;;21.76;59.01;100006.81;3115850;28;20049;-75
2022/05/27 02:55:01;;;;;;;18.33;7.05;;;;;;;21.71;59.17;99998.47;3115506;28;20565;-74
2022/05/27 02:56:38;;;;;;;14.82;6.57;;;;;;;21.69;59.52;100000.41;3115745;28;20084;-75
2022/05/27 02:58:11;;;;;;;15.88;7.28;;;;;;;21.69;59.46;100004.88;3114466;28;20061;-76
2022/05/27 02:59:43;;;;;;;15.05;6.32;;;;;;;21.69;59.19;100007.53;3110929;28;20057;-76
2022/05/27 03:01:16;;;;;;;15.53;6.93;;;;;;;21.68;59.55;100000.53;3115949;28;20067;-75
2022/05/27 03:02:48;;;;;;;18.17;6.18;;;;;;;21.46;59.44;99978.56;3109338;28;20064;-75
2022/05/27 03:04:22;;;;;;;17.97;7.23;;;;;;;21.56;59.45;99987.41;3115689;28;20120;-75
2022/05/27 03:06:07;;;;;;;11.55;7.28;;;;;;;21.63;59.54;99995.66;3115706;28;20608;-75
2022/05/27 03:07:56;;;;;;;9.50;6.03;;;;;;;21.43;59.69;99970.88;3115803;28;20100;-75
2022/05/27 03:09:38;;;;;;;12.32;6.97;;;;;;;21.60;59.57;100009.16;3110371;28;20088;-73
2022/05/27 03:11:15;;;;;;;15.60;6.90;;;;;;;21.26;59.79;99950.31;3110639;28;20558;-74
2022/05/27 03:13:07;;;;;;;12.65;6.88;;;;;;;21.51;59.45;99992.25;3115388;28;20068;-75
2022/05/27 03:15:19;;;;;;;15.80;6.82;;;;;;;21.57;59.73;99997.03;3115615;28;20103;-74
2022/05/27 03:17:02;;;;;;;15.82;7.72;;;;;;;21.58;59.36;100004.00;3100360;28;20115;-75
2022/05/27 03:18:49;;;;;;;14.35;6.95;;;;;;;21.55;59.75;100000.78;3115381;28;20057;-74
2022/05/27 03:20:40;;;;;;;15.65;7.40;;;;;;;21.54;59.77;100004.41;3116094;28;20084;-74
2022/05/27 03:22:20;;;;;;;18.67;7.60;;;;;;;21.53;59.71;100008.00;3115543;28;20049;-75
2022/05/27 03:24:14;;;;;;;13.65;7.13;;;;;;;21.47;59.88;100001.44;3115246;28;20420;-74
2022/05/27 03:25:51;;;;;;;13.38;7.30;;;;;;;21.48;59.28;99997.00;3109266;28;20069;-75
2022/05/27 03:27:30;;;;;;;15.10;7.07;;;;;;;21.47;59.45;99990.00;3115137;28;20555;-75
2022/05/27 03:29:15;;;;;;;11.50;6.82;;;;;;;21.45;59.79;99992.81;3115508;28;20464;-75
2022/05/27 03:30:55;;;;;;;21.27;7.25;;;;;;;21.52;59.60;100015.13;3115367;28;20053;-73
2022/05/27 03:32:36;;;;;;;13.88;7.43;;;;;;;21.34;59.78;99991.03;3115580;28;20049;-75
2022/05/27 03:34:14;;;;;;;14.73;6.90;;;;;;;21.43;59.92;100013.28;3116024;28;20046;-75
2022/05/27 03:35:55;;;;;;;13.23;6.18;;;;;;;21.23;60.11;99971.75;3115219;28;20053;-73
2022/05/27 03:37:31;;;;;;;18.92;6.80;;;;;;;21.38;60.06;100007.53;3114940;28;20088;-73
2022/05/27 03:39:19;;;;;;;14.77;7.03;;;;;;;21.34;60.25;100001.66;3115438;28;20049;-73
2022/05/27 03:40:59;;;;;;;11.70;6.43;;;;;;;21.11;60.26;99974.50;3115361;28;20053;-75
2022/05/27 03:42:32;;;;;;;17.73;7.22;;;;;;;21.29;60.40;100010.97;3115287;28;20057;-73
2022/05/27 03:44:06;;;;;;;16.88;6.97;;;;;;;21.11;60.41;99984.25;3115141;28;20053;-76
2022/05/27 03:45:49;;;;;;;19.45;7.15;;;;;;;21.26;60.61;100014.72;3120548;28;20159;-77
2022/05/27 03:47:21;;;;;;;12.40;7.20;;;;;;;21.08;60.82;99990.66;3115690;28;20057;-77
2022/05/27 03:48:53;;;;;;;28.02;7.20;;;;;;;21.00;60.81;99982.56;3115168;28;20092;-77
2022/05/27 03:50:27;;;;;;;11.75;6.70;;;;;;;21.12;61.07;99994.72;3115432;28;20054;-73
2022/05/27 03:52:05;;;;;;;19.48;6.75;;;;;;;21.18;61.02;100014.56;3114829;28;20054;-74
2022/05/27 03:55:27;;;;;;;20.65;7.35;;;;;;;21.10;61.55;99998.47;3115274;28;20057;-73
2022/05/27 03:57:00;;;;;;;16.75;7.47;;;;;;;21.10;61.34;100007.25;3109331;28;20120;-73
2022/05/27 03:58:32;;;;;;;15.40;6.85;;;;;;;21.04;61.33;99999.00;3115200;28;20218;-73
2022/05/27 04:00:05;;;;;;;13.60;6.57;;;;;;;21.10;61.64;100007.25;3114934;28;20601;-75
2022/05/27 04:01:38;;;;;;;;;;;;;;;21.07;61.73;100012.81;3115723;28;20053;-74
2022/05/27 04:03:10;;;;;;;19.35;7.05;;;;;;;21.08;61.69;100014.47;3115179;28;20537;-74
2022/05/27 04:04:42;;;;;;;20.27;7.30;;;;;;;21.06;61.86;100005.00;3114753;28;20057;-74
2022/05/27 04:06:15;;;;;;;14.90;7.47;;;;;;;21.08;61.93;100006.53;3110071;28;20613;-73
2022/05/27 04:07:48;;;;;;;14.02;6.75;;;;;;;21.16;61.70;100007.72;3109888;28;20088;-74
2022/05/27 04:09:21;;;;;;;;;;;;;;;21.14;61.60;100015.75;3110713;28;20069;-74
2022/05/27 04:10:53;;;;;;;16.50;7.05;;;;;;;21.17;61.51;100022.63;3110578;28;20101;-74
2022/05/27 04:12:25;;;;;;;16.10;6.65;;;;;;;21.20;61.77;100017.06;3110364;28;20061;-74
2022/05/27 04:13:57;;;;;;;22.42;8.00;;;;;;;21.24;61.72;100011.38;3111574;28;20049;-74
2022/05/27 04:15:29;;;;;;;13.65;7.13;;;;;;;21.24;61.40;100005.25;3111263;28;20053;-72
2022/05/27 04:18:47;;;;;;;16.95;7.45;;;;;;;21.31;61.16;100004.56;3112540;28;20111;-74
2022/05/27 04:20:20;;;;;;;16.55;7.95;;;;;;;21.16;61.08;99970.63;3114418;28;20053;-74
2022/05/27 04:21:52;;;;;;;19.23;7.38;;;;;;;21.38;61.17;99999.59;3115259;28;20045;-75
2022/05/27 04:23:26;;;;;;;23.38;7.47;;;;;;;21.46;60.92;100007.72;3119559;28;20082;-74
2022/05/27 04:24:58;;;;;;;;;;;;;;;21.45;61.12;100011.34;3116116;28;20053;-75
2022/05/27 04:26:29;;;;;;;14.35;7.57;;;;;;;21.42;61.38;100000.19;3125176;28;20360;-75
2022/05/27 04:28:01;;;;;;;20.45;8.18;;;;;;;21.47;61.28;100003.25;3125652;28;20064;-74
2022/05/27 04:29:33;;;;;;;18.58;8.05;;;;;;;21.53;61.09;100008.00;3126624;28;20054;-74
2022/05/27 04:31:05;;;;;;;22.98;8.15;;;;;;;21.38;60.92;99980.22;3125970;28;20057;-76
2022/05/27 04:32:37;;;;;;;16.77;7.68;;;;;;;21.58;61.11;99998.69;3117259;28;20060;-76
2022/05/27 04:34:10;;;;;;;19.33;7.47;;;;;;;21.63;60.72;100000.94;3117414;28;20136;-76
2022/05/27 04:35:42;;;;;;;27.73;8.73;;;;;;;21.67;60.79;100001.50;3110697;28;20093;-75
2022/05/27 04:37:14;;;;;;;15.05;7.18;;;;;;;21.70;60.65;99998.59;3117288;28;20521;-75
2022/05/27 04:38:48;;;;;;;22.58;7.75;;;;;;;21.76;60.71;100000.69;3117353;28;20582;-75
2022/05/27 04:40:19;;;;;;;13.48;7.30;;;;;;;21.80;60.20;99999.47;3117151;28;20059;-74
2022/05/27 04:41:51;;;;;;;21.92;7.70;;;;;;;21.84;59.94;99994.72;3122882;28;20115;-71
2022/05/27 04:43:23;;;;;;;21.55;8.13;;;;;;;21.90;59.90;100002.94;3114881;28;20788;-71
2022/05/27 04:44:55;;;;;;;16.88;7.18;;;;;;;21.95;59.78;100002.56;3117026;28;20137;-72
2022/05/27 04:46:27;;;;;;;22.27;7.82;;;;;;;22.04;59.39;100004.38;3117163;28;20053;-67
2022/05/27 04:47:59;;;;;;;22.10;8.02;;;;;;;22.09;59.30;99998.63;3117188;28;20057;-70
2022/05/27 04:51:20;;;;;;;18.75;7.55;;;;;;;22.21;59.05;100000.22;3116452;28;20045;-72
2022/05/27 04:52:52;;;;;;;23.08;7.85;;;;;;;22.25;58.87;99991.84;3116927;28;20049;-71
2022/05/27 04:54:25;;;;;;;23.75;8.20;;;;;;;22.32;58.76;99992.13;3117139;28;20606;-71
2022/05/27 04:55:57;;;;;;;25.10;8.10;;;;;;;22.39;58.42;99995.91;3116798;28;20053;-70
2022/05/27 04:57:33;;;;;;;21.10;7.95;;;;;;;22.45;58.17;99991.81;3117294;28;20057;-73
2022/05/27 04:59:05;;;;;;;13.02;6.63;;;;;;;22.49;58.02;100002.03;3117959;28;20127;-71
2022/05/27 05:00:39;;;;;;;12.43;7.35;;;;;;;22.54;57.95;100001.63;3116721;28;20104;-71
2022/05/27 05:02:11;;;;;;;14.75;7.60;;;;;;;22.58;57.85;99996.88;3116815;28;20057;-70
2022/05/27 05:03:43;;;;;;;15.85;6.90;;;;;;;22.63;57.49;99998.13;3116800;28;20276;-71
2022/05/27 05:05:15;;;;;;;16.33;7.75;;;;;;;;;;3122247;28;20049;-71
2022/05/27 05:06:47;;;;;;;13.63;7.53;;;;;;;22.66;57.36;99994.34;3117185;28;20053;-70
2022/05/27 05:08:28;;;;;;;16.77;7.75;;;;;;;22.74;57.46;100002.41;3116806;28;20060;-70
2022/05/27 05:10:01;;;;;;;16.33;7.35;;;;;;;22.60;57.33;99965.72;3116769;28;20685;-71
2022/05/27 05:11:33;;;;;;;14.05;7.45;;;;;;;22.86;57.29;99995.13;3116917;28;20068;-70
2022/05/27 05:13:05;;;;;;;12.57;7.32;;;;;;;22.92;57.20;100006.03;3116418;28;20056;-72
2022/05/27 05:14:39;;;;;;;18.27;6.95;;;;;;;22.99;57.27;100005.47;3116915;28;20061;-71
2022/05/27 05:16:11;;;;;;;21.42;7.75;;;;;;;23.03;57.21;99996.22;3116556;28;20054;-69
2022/05/27 05:17:43;;;;;;;18.33;8.23;;;;;;;22.89;56.88;99969.13;3116754;28;20065;-70
2022/05/27 05:19:15;;;;;;;18.00;7.88;;;;;;;23.09;56.70;99993.81;3116526;28;20537;-70
2022/05/27 05:20:46;;;;;;;17.70;7.88;;;;;;;23.13;56.56;99986.41;3116679;28;20800;-69
2022/05/27 05:22:18;;;;;;;15.10;6.82;;;;;;;23.24;56.06;99991.53;3116496;28;20049;-70
2022/05/27 05:23:50;;;;;;;14.70;7.88;;;;;;;23.29;55.94;99996.41;3116818;28;20060;-71
2022/05/27 05:25:25;;;;;;;12.48;7.05;;;;;;;23.31;55.76;99984.66;3116722;28;21004;-71
2022/05/27 05:26:57;;;;;;;12.85;6.63;;;;;;;23.41;55.70;99989.94;3116747;28;20092;-70
2022/05/27 05:28:29;;;;;;;19.65;7.63;;;;;;;23.49;55.56;99991.88;3115988;28;20670;-67
2022/05/27 05:30:01;;;;;;;14.43;6.43;;;;;;;23.55;55.02;99992.09;3116285;28;20523;-68
2022/05/27 05:31:33;;;;;;;19.45;7.22;;;;;;;23.62;55.22;99992.34;3116727;28;20530;-70
2022/05/27 05:33:05;;;;;;;19.25;10.68;;;;;;;23.69;54.65;99985.44;3123567;28;20392;-69
2022/05/27 05:34:37;;;;;;;27.17;14.45;;;;;;;23.76;53.72;99989.22;3123699;28;20053;-70
2022/05/27 05:36:10;;;;;;;17.55;9.30;;;;;;;23.82;53.84;99988.59;3122213;28;20420;-69
2022/05/27 05:37:42;;;;;;;13.65;7.97;;;;;;;23.91;53.75;99996.69;3123476;28;20053;-72
2022/05/27 05:39:14;;;;;;;22.92;9.50;;;;;;;23.91;53.06;99984.22;3118407;28;20057;-70
2022/05/27 05:40:48;;;;;;;51.92;32.33;;;;;;;24.02;53.21;99993.81;3116090;28;20332;-71
2022/05/27 05:42:20;;;;;;;14.00;8.60;;;;;;;24.07;53.06;99994.16;3117085;28;20050;-68
2022/05/27 05:43:52;;;;;;;20.65;9.00;;;;;;;24.11;52.55;99992.91;3116465;28;20053;-72
2022/05/27 05:45:24;;;;;;;12.57;7.05;;;;;;;24.16;52.46;99993.25;3116407;28;20089;-75
2022/05/27 05:46:56;;;;;;;16.90;7.00;;;;;;;24.15;52.09;99988.09;3116642;28;20059;-74
2022/05/27 05:48:28;;;;;;;15.88;7.10;;;;;;;24.11;51.60;99981.41;3116319;28;20156;-72
2022/05/27 05:50:00;;;;;;;14.95;6.72;;;;;;;24.22;51.00;99991.81;3116085;28;20064;-70
2022/05/27 05:51:32;;;;;;;14.73;6.85;;;;;;;24.27;51.04;100001.00;3116333;28;20316;-71
2022/05/27 05:53:04;;;;;;;13.10;7.15;;;;;;;24.33;50.81;99996.06;3116134;28;20049;-72
2022/05/27 05:54:36;;;;;;;17.77;7.35;;;;;;;24.36;51.03;99998.44;3116467;28;20049;-69
2022/05/27 05:56:12;;;;;;;11.40;6.97;;;;;;;24.38;50.99;99993.81;3116258;28;20063;-69
2022/05/27 05:57:46;;;;;;;13.55;7.07;;;;;;;24.14;51.05;99943.88;3110292;28;20507;-68
2022/05/27 05:59:19;;;;;;;19.40;7.22;;;;;;;24.51;50.87;99994.25;3109826;28;20574;-69
2022/05/27 06:00:51;;;;;;;12.38;6.70;;;;;;;24.55;51.12;99992.97;3116336;28;20054;-69
2022/05/27 06:02:23;;;;;;;17.98;7.18;;;;;;;24.55;51.04;99990.31;3118975;28;20232;-70
2022/05/27 06:03:55;;;;;;;17.15;6.93;;;;;;;24.62;50.87;99987.84;3119426;28;20122;-70
2022/05/27 06:05:27;;;;;;;14.02;6.38;;;;;;;24.67;50.57;99999.72;3119356;28;20115;-71
2022/05/27 06:06:59;;;;;;;14.35;6.07;;;;;;;24.63;49.78;99990.34;3116532;28;20053;-71
2022/05/27 06:08:32;;;;;;;16.48;6.00;;;;;;;24.66;49.67;99991.88;3116004;28;20057;-70
2022/05/27 06:10:05;;;;;;;14.75;6.63;;;;;;;24.71;50.02;99997.56;3117857;28;20053;-67
2022/05/27 06:11:38;;;;;;;10.75;6.63;;;;;;;24.72;49.44;99993.91;3109992;28;20383;-67
2022/05/27 06:13:10;;;;;;;;;;;;;;;24.75;49.64;99990.94;3116694;28;20132;-67
2022/05/27 06:14:42;;;;;;;9.13;5.90;;;;;;;24.77;49.23;99988.13;3116210;28;19932;-68
2022/05/27 06:16:14;;;;;;;18.35;7.22;;;;;;;24.79;49.40;99984.31;3116251;28;20054;-68
2022/05/27 06:17:46;;;;;;;12.88;5.93;;;;;;;24.88;49.34;99996.69;3116077;28;20119;-68
2022/05/27 06:19:17;;;;;;;19.25;6.65;;;;;;;24.93;49.46;99988.22;3111880;28;20116;-68
2022/05/27 06:20:50;;;;;;;16.08;6.80;;;;;;;25.01;49.45;99990.94;3116306;28;20515;-68
2022/05/27 06:22:22;;;;;;;14.73;6.55;;;;;;;25.08;49.74;99988.47;3118098;28;20450;-68
2022/05/27 06:23:54;;;;;;;15.88;6.80;;;;;;;25.15;49.38;99987.72;3119918;28;20613;-68
2022/05/27 06:25:26;;;;;;;14.15;6.70;;;;;;;25.22;49.29;99989.75;3116130;28;20103;-67
2022/05/27 06:26:59;;;;;;;17.35;6.85;;;;;;;25.22;48.94;99984.41;3120394;28;20510;-69
2022/05/27 06:35:48;;;;;;;17.48;6.47;;;;;;;25.37;48.22;99980.97;3116370;28;20057;-68
2022/05/27 06:37:22;;;;;;;15.73;6.43;;;;;;;25.40;47.19;99977.16;3119054;28;20767;-69
2022/05/27 06:38:54;;;;;;;16.85;6.65;;;;;;;25.47;47.43;99978.22;3119589;28;20095;-68
2022/05/27 06:40:26;;;;;;;16.30;6.43;;;;;;;25.50;47.07;99974.38;3124195;28;20049;-68
2022/05/27 06:41:59;;;;;;;20.15;6.97;;;;;;;25.56;46.81;99976.41;3109428;28;20111;-70
2022/05/27 06:43:31;;;;;;;;;;;;;;;25.62;46.28;99978.41;3120371;28;20052;-70
2022/05/27 06:45:04;;;;;;;12.70;5.82;;;;;;;25.65;46.05;99965.59;3124821;28;20452;-75
2022/05/27 06:46:36;;;;;;;12.15;5.72;;;;;;;25.72;46.03;99973.78;3125168;28;20087;-77
2022/05/27 06:48:09;;;;;;;13.27;5.87;;;;;;;25.59;45.61;99947.56;3124424;28;20056;-78
2022/05/27 06:49:44;;;;;;;10.07;5.72;;;;;;;25.84;45.59;99971.66;3123839;28;20057;-77
2022/05/27 06:51:18;;;;;;;18.05;6.38;;;;;;;25.87;45.38;99966.00;3123541;28;20049;-78
2022/05/27 06:52:52;;;;;;;14.68;5.28;;;;;;;25.98;44.65;99981.69;3119760;28;20057;-72
2022/05/27 06:54:25;;;;;;;19.90;8.07;;;;;;;25.99;44.07;99983.34;3123109;28;20399;-68
2022/05/27 06:55:57;;;;;;;10.27;5.05;;;;;;;25.93;44.01;99959.16;3125188;28;20056;-68
2022/05/27 06:57:30;;;;;;;12.83;5.83;;;;;;;26.09;44.04;99977.88;3120252;28;20103;-72
2022/05/27 06:59:02;;;;;;;;;;;;;;;26.10;43.78;99977.72;3116229;28;20335;-74
2022/05/27 07:00:34;;;;;;;15.07;4.88;;;;;;;26.15;43.54;99969.22;3115462;28;19929;-73
2022/05/27 07:02:07;;;;;;;17.38;5.45;;;;;;;26.16;43.84;99956.69;3115742;28;20053;-71
2022/05/27 07:03:39;;;;;;;9.63;5.40;;;;;;;26.27;43.45;99969.72;3108885;28;20057;-68
2022/05/27 07:05:11;;;;;;;9.35;5.32;;;;;;;26.34;43.84;99957.38;3110230;28;20234;-72
2022/05/27 07:06:47;;;;;;;12.68;5.47;;;;;;;26.37;43.44;99950.84;3107204;28;20136;-70
2022/05/27 07:08:18;;;;;;;14.57;5.18;;;;;;;26.54;43.85;99965.91;3106737;28;20440;-68
2022/05/27 07:09:50;;;;;;;14.35;6.18;;;;;;;26.64;43.67;99966.53;3110247;28;20171;-72
2022/05/27 07:11:22;;;;;;;16.10;5.15;;;;;;;26.69;43.28;99964.22;3111418;28;20057;-74
2022/05/27 07:12:59;;;;;;;15.38;4.78;;;;;;;26.75;43.58;99965.38;3113694;28;20604;-73
2022/05/27 07:14:31;;;;;;;13.25;5.07;;;;;;;26.81;43.36;99962.00;3113138;28;20148;-76
2022/05/27 07:16:04;;;;;;;11.23;4.82;;;;;;;26.89;43.32;99963.84;3111189;28;20058;-72
2022/05/27 07:17:36;;;;;;;13.05;5.30;;;;;;;26.92;43.20;99944.81;3111632;28;20557;-74
2022/05/27 07:19:08;;;;;;;15.40;5.22;;;;;;;26.96;43.08;99941.59;3110664;28;20049;-67
2022/05/27 07:20:41;;;;;;;16.15;12.10;;;;;;;27.11;43.15;99955.06;3109636;28;20511;-67
2022/05/27 07:22:14;;;;;;;14.43;6.80;;;;;;;27.17;42.90;99954.41;3104929;28;20060;-71
2022/05/27 07:23:46;;;;;;;24.80;12.00;;;;;;;27.25;43.05;99948.22;3108019;28;20530;-69
2022/05/27 07:25:18;;;;;;;15.75;5.32;;;;;;;27.34;42.48;99947.16;3113682;28;20084;-69
2022/05/27 07:26:50;;;;;;;8.60;4.97;;;;;;;27.43;42.27;99950.63;3115093;28;20649;-75
2022/05/27 07:28:23;;;;;;;12.98;5.10;;;;;;;27.51;42.07;99941.72;3115147;28;20132;-73
2022/05/27 07:29:55;;;;;;;12.73;5.05;;;;;;;27.57;41.69;99938.38;3122265;28;20130;-72
2022/05/27 07:31:29;;;;;;;11.40;4.95;;;;;;;27.64;41.32;99939.31;3116194;28;20529;-73
2022/05/27 07:33:01;;;;;;;10.52;5.25;;;;;;;27.67;41.24;99925.59;3125938;28;20049;-74
2022/05/27 07:34:33;;;;;;;14.68;5.28;;;;;;;27.80;40.81;99936.56;3122001;28;20151;-75
2022/05/27 07:36:06;;;;;;;10.23;4.63;;;;;;;27.70;40.40;99914.53;3122536;28;20055;-75
2022/05/27 07:37:38;;;;;;;14.95;5.72;;;;;;;27.88;39.80;99924.97;3115988;28;20122;-75
2022/05/27 07:39:25;;;;;;;13.07;4.43;;;;;;;27.85;39.82;99912.78;3115233;28;20523;-74
2022/05/27 07:40:57;;;;;;;12.40;4.05;;;;;;;28.06;39.69;99935.38;3114979;28;20071;-76